createdAt,value
2019-02-05T08:33:18.278Z,10.97
2019-02-05T08:35:46.873Z,11.63
2019-02-05T08:38:15.611Z,11.13
2019-02-05T08:40:44.530Z,12.33
2019-02-05T08:43:13.243Z,13.43
2019-02-05T08:45:41.855Z,12.67
2019-02-05T08:48:12.501Z,13.07
2019-02-05T08:50:41.191Z,12.83
2019-02-05T08:53:09.757Z,13.07
2019-02-05T08:55:38.313Z,12.77
2019-02-05T08:58:10.025Z,13.43
2019-02-05T09:00:40.337Z,13.27
2019-02-05T09:03:10.848Z,14.23
2019-02-05T09:05:39.642Z,13.27
2019-02-05T09:08:08.553Z,12.83
2019-02-05T09:10:41.535Z,13.80
2019-02-05T09:13:10.573Z,14.13
2019-02-05T09:15:39.129Z,14.83
2019-02-05T09:18:08.135Z,16.00
2019-02-05T09:20:36.749Z,16.23
2019-02-05T09:23:05.935Z,15.37
2019-02-05T09:25:35.097Z,16.23
2019-02-05T09:28:03.658Z,15.60
2019-02-05T09:30:36.568Z,15.07
2019-02-05T09:33:08.302Z,15.17
2019-02-05T09:35:37.006Z,15.80
2019-02-05T09:38:05.684Z,16.43
2019-02-05T09:40:34.693Z,16.10
2019-02-05T09:43:03.592Z,15.87
2019-02-05T09:45:32.493Z,15.30
2019-02-05T09:48:01.878Z,16.80
2019-02-05T09:50:32.950Z,14.93
2019-02-05T09:53:01.010Z,14.73
2019-02-05T09:55:29.720Z,15.13
2019-02-05T09:57:58.405Z,15.83
2019-02-05T10:00:29.772Z,14.77
2019-02-05T10:02:58.585Z,14.70
2019-02-05T10:05:32.194Z,16.00
2019-02-05T10:08:00.809Z,16.10
2019-02-05T10:10:29.549Z,15.07
2019-02-05T10:12:58.174Z,16.03
2019-02-05T10:15:29.442Z,15.80
2019-02-05T10:17:58.310Z,14.90
2019-02-05T10:20:27.153Z,17.13
2019-02-05T10:22:57.642Z,16.23
2019-02-05T10:25:26.281Z,15.30
2019-02-05T10:27:54.827Z,14.43
2019-02-05T10:30:29.158Z,15.77
2019-02-05T10:32:57.846Z,15.47
2019-02-05T10:35:26.498Z,15.00
2019-02-05T10:37:55.174Z,14.87
2019-02-05T10:40:24.847Z,15.07
2019-02-05T10:42:53.624Z,13.47
2019-02-05T10:45:25.274Z,14.20
2019-02-05T10:47:54.158Z,14.30
2019-02-05T10:50:23.202Z,12.00
2019-02-05T10:52:52.130Z,12.90
2019-02-05T10:55:23.915Z,13.27
2019-02-05T10:57:54.023Z,13.40
2019-02-05T11:00:30.810Z,12.20
2019-02-05T11:03:01.528Z,12.53
2019-02-05T11:05:31.219Z,12.63
2019-02-05T11:08:00.121Z,13.43
2019-02-05T11:10:28.745Z,13.10
2019-02-05T11:12:57.459Z,12.13
2019-02-05T11:15:28.613Z,12.83
2019-02-05T11:17:57.317Z,12.93
2019-02-05T11:20:27.702Z,12.90
2019-02-05T11:22:56.352Z,11.47
2019-02-05T11:25:25.283Z,10.50
2019-02-05T11:27:54.004Z,11.00
2019-02-05T11:30:34.599Z,10.10
2019-02-05T11:33:03.249Z,10.43
2019-02-05T11:35:32.158Z,9.80
2019-02-05T11:38:00.800Z,10.57
2019-02-05T11:40:31.957Z,9.57
2019-02-05T11:43:00.528Z,10.13
2019-02-05T11:45:29.313Z,9.00
2019-02-05T11:47:59.226Z,8.33
2019-02-05T11:50:27.825Z,9.20
2019-02-05T11:52:56.766Z,8.57
2019-02-05T11:55:27.553Z,8.60
2019-02-05T11:57:56.197Z,8.20
2019-02-05T12:00:44.441Z,7.67
2019-02-05T12:03:13.341Z,8.50
2019-02-05T12:05:41.953Z,9.43
2019-02-05T12:08:10.652Z,7.87
2019-02-05T12:10:39.192Z,8.73
2019-02-05T12:13:07.765Z,8.07
2019-02-05T12:15:36.306Z,7.20
2019-02-05T12:18:05.109Z,6.97
2019-02-05T12:20:33.724Z,6.43
2019-02-05T12:23:02.664Z,7.00
2019-02-05T12:25:31.281Z,6.20
2019-02-05T12:27:59.845Z,6.90
2019-02-05T12:30:44.566Z,6.20
2019-02-05T12:33:04.541Z,7.10
2019-02-05T12:35:33.229Z,7.77
2019-02-05T12:38:02.154Z,6.97
2019-02-05T12:40:30.764Z,7.17
2019-02-05T12:42:59.489Z,6.80
2019-02-05T12:45:33.896Z,6.83
2019-02-05T12:48:02.531Z,7.77
2019-02-05T12:50:33.341Z,7.43
2019-02-05T12:53:02.463Z,6.67
2019-02-05T12:55:31.274Z,7.63
2019-02-05T12:58:00.104Z,7.97
2019-02-05T13:00:36.993Z,7.77
2019-02-05T13:03:06.517Z,7.63
2019-02-05T13:05:35.127Z,7.80
2019-02-05T13:08:05.483Z,6.73
2019-02-05T13:10:39.655Z,7.67
2019-02-05T13:13:08.751Z,7.17
2019-02-05T13:15:37.450Z,7.60
2019-02-05T13:18:06.526Z,7.43
2019-02-05T13:20:35.241Z,6.83
2019-02-05T13:23:04.838Z,6.60
2019-02-05T13:25:33.953Z,6.80
2019-02-05T13:28:02.644Z,7.17
2019-02-05T13:30:32.947Z,6.97
2019-02-05T13:33:01.648Z,6.33
2019-02-05T13:35:30.849Z,7.57
2019-02-05T13:37:59.456Z,7.53
2019-02-05T13:40:28.764Z,7.40
2019-02-05T13:42:57.861Z,7.73
2019-02-05T13:45:29.184Z,8.43
2019-02-05T13:47:57.863Z,7.43
2019-02-05T13:50:32.991Z,8.33
2019-02-05T13:52:58.738Z,7.87
2019-02-05T13:55:32.421Z,7.67
2019-02-05T13:58:01.697Z,8.50
2019-02-05T14:00:36.273Z,7.03
2019-02-05T14:03:06.884Z,9.03
2019-02-05T14:05:35.562Z,9.07
2019-02-05T14:08:04.741Z,9.33
2019-02-05T14:10:36.026Z,9.30
2019-02-05T14:13:05.101Z,8.97
2019-02-05T14:15:35.917Z,8.70
2019-02-05T14:18:05.508Z,8.60
2019-02-05T14:20:34.141Z,8.60
2019-02-05T14:23:02.694Z,9.43
2019-02-05T14:25:31.401Z,9.50
2019-02-05T14:27:59.944Z,9.50
2019-02-05T14:30:31.136Z,8.03
2019-02-05T14:32:59.975Z,7.67
2019-02-05T14:35:28.688Z,8.23
2019-02-05T14:37:57.288Z,8.67
2019-02-05T14:40:27.004Z,8.27
2019-02-05T14:42:55.618Z,8.30
2019-02-05T14:45:24.425Z,9.13
2019-02-05T14:47:53.118Z,8.70
2019-02-05T14:50:29.720Z,9.40
2019-02-05T14:52:58.812Z,9.53
2019-02-05T14:55:27.443Z,8.30
2019-02-05T14:57:56.146Z,9.30
2019-02-05T15:00:34.866Z,9.27
2019-02-05T15:03:08.213Z,10.43
2019-02-05T15:05:37.027Z,8.27
2019-02-05T15:08:06.307Z,8.20
2019-02-05T15:10:34.872Z,10.30
2019-02-05T15:13:03.514Z,9.07
2019-02-05T15:15:32.362Z,7.90
2019-02-05T15:18:00.939Z,9.20
2019-02-05T15:20:34.854Z,8.50
2019-02-05T15:23:03.973Z,8.13
2019-02-05T15:25:32.588Z,7.53
2019-02-05T15:28:01.240Z,7.73
2019-02-05T15:30:33.062Z,7.70
2019-02-05T15:33:20.814Z,8.20
2019-02-05T15:35:51.000Z,7.77
2019-02-05T15:38:19.577Z,7.70
2019-02-05T15:40:48.496Z,8.00
2019-02-05T15:43:17.304Z,7.90
2019-02-05T15:45:45.857Z,7.70
2019-02-05T15:48:14.512Z,6.93
2019-02-05T15:50:43.121Z,7.10
2019-02-05T15:53:11.746Z,6.43
2019-02-05T15:55:40.941Z,7.07
2019-02-05T15:58:09.577Z,6.47
2019-02-05T16:04:06.506Z,5.97
2019-02-05T16:06:35.089Z,6.77
2019-02-05T16:09:05.335Z,6.73
2019-02-05T16:11:33.935Z,5.77
2019-02-05T16:14:02.475Z,6.27
2019-02-05T16:16:31.029Z,5.47
2019-02-05T16:18:59.606Z,5.83
2019-02-05T16:21:28.235Z,5.60
2019-02-05T16:23:58.258Z,5.77
2019-02-05T16:26:26.920Z,6.80
2019-02-05T16:28:55.488Z,5.30
2019-02-05T16:31:24.307Z,6.17
2019-02-05T16:33:52.874Z,5.80
2019-02-05T16:36:21.421Z,5.43
2019-02-05T16:38:50.060Z,5.27
2019-02-05T16:41:18.678Z,5.27
2019-02-05T16:43:47.259Z,6.83
2019-02-05T16:46:16.008Z,5.40
2019-02-05T16:48:44.579Z,5.47
2019-02-05T16:51:13.189Z,5.33
2019-02-05T16:53:41.765Z,5.57
2019-02-05T16:56:10.322Z,4.43
2019-02-05T16:58:38.960Z,5.00
2019-02-05T17:01:07.499Z,4.70
2019-02-05T17:03:36.334Z,5.40
2019-02-05T17:06:05.427Z,5.13
2019-02-05T17:08:34.016Z,5.90
2019-02-05T17:11:02.558Z,4.13
2019-02-05T17:13:31.199Z,5.00
2019-02-05T17:16:01.311Z,4.80
2019-02-05T17:18:30.182Z,4.33
2019-02-05T17:20:58.886Z,4.27
2019-02-05T17:23:27.597Z,4.80
2019-02-05T17:25:56.217Z,4.80
2019-02-05T17:28:24.789Z,4.37
2019-02-05T17:30:53.339Z,7.27
2019-02-05T17:33:21.974Z,6.90
2019-02-05T17:35:50.586Z,5.90
2019-02-05T17:38:19.158Z,5.07
2019-02-05T17:40:47.713Z,5.17
2019-02-05T17:43:16.376Z,4.60
2019-02-05T17:45:45.031Z,4.57
2019-02-05T17:48:15.511Z,4.10
2019-02-05T17:50:44.381Z,4.53
2019-02-05T17:53:12.994Z,3.87
2019-02-05T17:55:41.567Z,4.03
2019-02-05T17:58:10.246Z,4.80
2019-02-05T18:00:40.590Z,4.60
2019-02-05T18:03:09.185Z,4.30
2019-02-05T18:05:38.158Z,4.67
2019-02-05T18:08:06.771Z,4.50
2019-02-05T18:10:35.354Z,4.27
2019-02-05T18:13:03.903Z,4.30
2019-02-05T18:15:35.282Z,4.87
2019-02-05T18:18:04.690Z,4.40
2019-02-05T18:20:33.631Z,5.03
2019-02-05T18:23:02.239Z,4.97
2019-02-05T18:25:30.819Z,4.93
2019-02-05T18:27:59.441Z,4.90
2019-02-05T18:30:33.671Z,5.10
2019-02-05T18:33:04.266Z,5.30
2019-02-05T18:35:32.525Z,5.27
2019-02-05T18:38:02.147Z,4.73
2019-02-05T18:40:30.875Z,4.87
2019-02-05T18:42:59.676Z,4.57
2019-02-05T18:45:28.271Z,4.77
2019-02-05T18:47:56.830Z,5.30
2019-02-05T18:50:28.038Z,5.00
2019-02-05T18:52:56.680Z,5.83
2019-02-05T18:55:37.109Z,5.40
2019-02-05T18:58:09.401Z,5.83
2019-02-05T19:00:44.539Z,6.00
2019-02-05T19:03:15.964Z,5.67
2019-02-05T19:05:43.724Z,5.03
2019-02-05T19:08:16.304Z,5.63
2019-02-05T19:10:44.671Z,4.90
2019-02-05T19:13:14.416Z,5.27
2019-02-05T19:15:43.760Z,5.63
2019-02-05T19:18:12.698Z,6.20
2019-02-05T19:20:41.391Z,6.40
2019-02-05T19:23:10.712Z,5.53
2019-02-05T19:25:46.927Z,6.47
2019-02-05T19:28:17.297Z,6.10
2019-02-05T19:30:47.621Z,5.33
2019-02-05T19:33:26.735Z,5.73
2019-02-05T19:35:46.592Z,6.30
2019-02-05T19:38:15.212Z,6.17
2019-02-05T19:40:43.850Z,5.93
2019-02-05T19:43:12.596Z,6.00
2019-02-05T19:45:48.826Z,6.93
2019-02-05T19:51:26.764Z,7.27
2019-02-05T19:54:18.109Z,7.10
